Bahamas Celebration — C6XJ3 — position and weather

sailwx.info

Track history (hours):
 
Tides and Currents Weather Stations Pressure Air Temp Water Temp Dewpoint Dewpoint Depression Visibility Wind Speed Wind Dir Waves Ship Positions

Bahamas Celebration

Last reported at 2014-Jul-24 22:27 UTC. Time now 2014-Jul-25 20:41 UTC.
Position N 26°46' W 080°03'.

Length 202 m; draft 6.1 m.

Type: Passenger vessel. MMSI: 311011300.

Date/timePositionNaut miles runAvg speedWind from/ knotsBaromVisibWave heightAir tempDewpointWater temp
2014-Jul-24 22:27N 26°46' W 080°03'0 0.0
2014-Jul-24 11:13N 26°46' W 080°03'4 6.1
2014-Jul-24 10:31N 26°44' W 079°59'8 8.1
2014-Jul-24 09:32N 26°41' W 079°51'7 7.5
2014-Jul-24 08:33N 26°38' W 079°43'6 5.8
2014-Jul-24 07:33N 26°36' W 079°37'5 4.7
2014-Jul-24 06:33N 26°34' W 079°32'26 0.8
2014-Jul-22 23:10N 26°46' W 079°58'4 6.4
2014-Jul-22 22:33N 26°46' W 080°03'1 0.5
2014-Jul-22 21:32N 26°46' W 080°03'0 0.0
2014-Jul-22 18:11N 26°46' W 080°03'0 0.0
2014-Jul-22 16:11N 26°46' W 080°03'0 0.0
2014-Jul-22 15:17N 26°46' W 080°03'0 0.0
2014-Jul-22 12:11N 26°46' W 080°03'0 0.0
2014-Jul-22 11:21N 26°46' W 080°03'3 3.9
2014-Jul-22 10:33N 26°45' W 079°60'6 6.1
2014-Jul-22 09:34N 26°41' W 079°55'9 8.8
2014-Jul-22 08:33N 26°39' W 079°45'6 6.1
2014-Jul-22 07:33N 26°36' W 079°39'6 5.5
2014-Jul-22 06:32N 26°34' W 079°33'26 0.8
2014-Jul-20 23:05N 26°46' W 079°59'3 5.1
2014-Jul-20 22:33N 26°46' W 080°02'1 0.3
2014-Jul-20 19:13N 26°46' W 080°03'0 0.0
2014-Jul-20 18:19N 26°46' W 080°03'0 0.0
2014-Jul-20 12:31N 26°46' W 080°03'0 0.0
2014-Jul-20 11:23N 26°46' W 080°03'4 5.2
2014-Jul-20 10:33N 26°45' W 079°59'7 7.2
2014-Jul-20 09:33N 26°41' W 079°52'7 7.5
2014-Jul-20 08:33N 26°38' W 079°44'6 6.2
2014-Jul-20 07:34N 26°35' W 079°38'6 5.9
2014-Jul-20 06:31N 26°32' W 079°32'25 5.7
2014-Jul-20 02:14N 26°30' W 079°05'40 1.6
2014-Jul-19 02:06N 26°47' W 079°45'2 2.9
2014-Jul-19 01:18N 26°47' W 079°47'3 3.3
2014-Jul-19 00:30N 26°47' W 079°50'11 5.6
2014-Jul-18 22:33N 26°46' W 080°02'1 0.1
2014-Jul-18 15:33N 26°46' W 080°03'0 0.0
2014-Jul-18 12:24N 26°46' W 080°03'0 0.0
2014-Jul-18 11:30N 26°46' W 080°03'4 4.4
2014-Jul-18 10:33N 26°44' W 079°59'8 8.0
2014-Jul-18 09:33N 26°41' W 079°51'8 7.9
2014-Jul-18 08:33N 26°38' W 079°43'6 5.7
2014-Jul-18 07:33N 26°36' W 079°37'5 4.5
2014-Jul-18 06:33N 26°36' W 079°32'5 0.2
2014-Jul-17 04:13N 26°41' W 079°31'5 6.2
2014-Jul-17 03:29N 26°42' W 079°37'7 5.9
2014-Jul-17 02:15N 26°43' W 079°45'3 3.7
2014-Jul-17 01:21N 26°44' W 079°48'3 3.6
2014-Jul-17 00:31N 26°44' W 079°51'10 5.3
2014-Jul-16 22:33N 26°46' W 080°03'0 0.3
2014-Jul-16 21:13N 26°46' W 080°03'0 0.0
2014-Jul-16 20:25N 26°46' W 080°03'0 0.0
2014-Jul-16 19:25N 26°46' W 080°03'0 0.0
2014-Jul-16 18:31N 26°46' W 080°03'0 0.0
2014-Jul-16 17:10N 26°46' W 080°03'0 0.0
2014-Jul-16 16:10N 26°46' W 080°03'0 0.0
2014-Jul-16 15:10N 26°46' W 080°03'0 0.0
2014-Jul-16 14:28N 26°46' W 080°03'0 0.0
2014-Jul-16 13:07N 26°46' W 080°03'2 0.9
2014-Jul-16 10:33N 26°46' W 080°01'7 7.2
2014-Jul-16 09:33N 26°41' W 079°54'8 8.2
2014-Jul-16 08:33N 26°38' W 079°46'6 5.9
2014-Jul-16 07:33N 26°36' W 079°40'5 4.9
2014-Jul-16 06:33N 26°35' W 079°35'23 5.4
2014-Jul-16 02:16N 26°33' W 079°09'42 1.6
2014-Jul-15 00:10N 26°46' W 079°53'  
Track history (hours):
 
Tides and Currents Weather Stations Pressure Air Temp Water Temp Dewpoint Dewpoint Depression Visibility Wind Speed Wind Dir Waves Ship Positions

Bahamas Celebration

Last reported at 2014-Jul-24 22:27 UTC. Time now 2014-Jul-25 20:41 UTC.
Position N 26°46' W 080°03'.

Length 202 m; draft 6.1 m.

Type: Passenger vessel. MMSI: 311011300.

Date/timePositionNaut miles runAvg speedWind from/ knotsBaromVisibWave heightAir tempDewpointWater temp
2014-Jul-24 22:27N 26°46' W 080°03'0 0.0
2014-Jul-24 11:13N 26°46' W 080°03'4 6.1
2014-Jul-24 10:31N 26°44' W 079°59'8 8.1
2014-Jul-24 09:32N 26°41' W 079°51'7 7.5
2014-Jul-24 08:33N 26°38' W 079°43'6 5.8
2014-Jul-24 07:33N 26°36' W 079°37'5 4.7
2014-Jul-24 06:33N 26°34' W 079°32'26 0.8
2014-Jul-22 23:10N 26°46' W 079°58'4 6.4
2014-Jul-22 22:33N 26°46' W 080°03'1 0.5
2014-Jul-22 21:32N 26°46' W 080°03'0 0.0
2014-Jul-22 18:11N 26°46' W 080°03'0 0.0
2014-Jul-22 16:11N 26°46' W 080°03'0 0.0
2014-Jul-22 15:17N 26°46' W 080°03'0 0.0
2014-Jul-22 12:11N 26°46' W 080°03'0 0.0
2014-Jul-22 11:21N 26°46' W 080°03'3 3.9
2014-Jul-22 10:33N 26°45' W 079°60'6 6.1
2014-Jul-22 09:34N 26°41' W 079°55'9 8.8
2014-Jul-22 08:33N 26°39' W 079°45'6 6.1
2014-Jul-22 07:33N 26°36' W 079°39'6 5.5
2014-Jul-22 06:32N 26°34' W 079°33'26 0.8
2014-Jul-20 23:05N 26°46' W 079°59'3 5.1
2014-Jul-20 22:33N 26°46' W 080°02'1 0.3
2014-Jul-20 19:13N 26°46' W 080°03'0 0.0
2014-Jul-20 18:19N 26°46' W 080°03'0 0.0
2014-Jul-20 12:31N 26°46' W 080°03'0 0.0
2014-Jul-20 11:23N 26°46' W 080°03'4 5.2
2014-Jul-20 10:33N 26°45' W 079°59'7 7.2
2014-Jul-20 09:33N 26°41' W 079°52'7 7.5
2014-Jul-20 08:33N 26°38' W 079°44'6 6.2
2014-Jul-20 07:34N 26°35' W 079°38'6 5.9
2014-Jul-20 06:31N 26°32' W 079°32'25 5.7
2014-Jul-20 02:14N 26°30' W 079°05'40 1.6
2014-Jul-19 02:06N 26°47' W 079°45'2 2.9
2014-Jul-19 01:18N 26°47' W 079°47'3 3.3
2014-Jul-19 00:30N 26°47' W 079°50'11 5.6
2014-Jul-18 22:33N 26°46' W 080°02'1 0.1
2014-Jul-18 15:33N 26°46' W 080°03'0 0.0
2014-Jul-18 12:24N 26°46' W 080°03'0 0.0
2014-Jul-18 11:30N 26°46' W 080°03'4 4.4
2014-Jul-18 10:33N 26°44' W 079°59'8 8.0
2014-Jul-18 09:33N 26°41' W 079°51'8 7.9
2014-Jul-18 08:33N 26°38' W 079°43'6 5.7
2014-Jul-18 07:33N 26°36' W 079°37'5 4.5
2014-Jul-18 06:33N 26°36' W 079°32'5 0.2
2014-Jul-17 04:13N 26°41' W 079°31'5 6.2
2014-Jul-17 03:29N 26°42' W 079°37'7 5.9
2014-Jul-17 02:15N 26°43' W 079°45'3 3.7
2014-Jul-17 01:21N 26°44' W 079°48'3 3.6
2014-Jul-17 00:31N 26°44' W 079°51'10 5.3
2014-Jul-16 22:33N 26°46' W 080°03'0 0.3
2014-Jul-16 21:13N 26°46' W 080°03'0 0.0
2014-Jul-16 20:25N 26°46' W 080°03'0 0.0
2014-Jul-16 19:25N 26°46' W 080°03'0 0.0
2014-Jul-16 18:31N 26°46' W 080°03'0 0.0
2014-Jul-16 17:10N 26°46' W 080°03'0 0.0
2014-Jul-16 16:10N 26°46' W 080°03'0 0.0
2014-Jul-16 15:10N 26°46' W 080°03'0 0.0
2014-Jul-16 14:28N 26°46' W 080°03'0 0.0
2014-Jul-16 13:07N 26°46' W 080°03'2 0.9
2014-Jul-16 10:33N 26°46' W 080°01'7 7.2
2014-Jul-16 09:33N 26°41' W 079°54'8 8.2
2014-Jul-16 08:33N 26°38' W 079°46'6 5.9
2014-Jul-16 07:33N 26°36' W 079°40'5 4.9
2014-Jul-16 06:33N 26°35' W 079°35'23 5.4
2014-Jul-16 02:16N 26°33' W 079°09'42 1.6
2014-Jul-15 00:10N 26°46' W 079°53'  

Dump ship's entire track history